Inicio METAR Ruta Wind Satelite

Informe Meteorológico

Fecha: 2020/07/02 00:52:33 Local
2020.07.02 05:52 UTC


Estado: VENCIDO
Operación:VFR
Puerto Carreno / A. Guauquea, Colombia (SKPC) 06-10N 067-30W
2020.07.01 2300 UTC
Wind: from the N (360 degrees) at 5 MPH (4 KT):0
Visibility: greater than 7 mile(s):0
Sky conditions: partly cloudy
Weather: Towering cumulus clouds observed
Temperature: 87 F (31 C)
Dew Point: 69 F (21 C)
Relative Humidity: 55%
Pressure (altimeter): 29.74 in. Hg (1007 hPa)
ob: SKPC 012300Z 36004KT 9999 FEW017TCU SCT070 31/21 A2974 RMK TCU/S
cycle: 23

SKPC 012200Z 36005KT 9999 FEW020 33/20 A2974
SKPC 012100Z 34004KT 9999 FEW020 33/21 A2973
SKPC 012000Z 05005KT 9999 FEW020 32/21 A2974
SKPC 011900Z 00000KT 9999 FEW020 32/22 A2977
SKPC 011800Z 00000KT 9999 FEW020 SCT080 31/22 A2980